createdAt,value
2023-08-03T00:02:15.842Z,73157.00
2023-08-03T00:05:00.662Z,73154.94
2023-08-03T00:07:49.218Z,73159.09
2023-08-03T00:10:35.126Z,73157.00
2023-08-03T00:13:23.889Z,73154.94
2023-08-03T00:16:13.849Z,73152.88
2023-08-03T00:18:40.865Z,73154.94
2023-08-03T00:21:07.966Z,73154.94
2023-08-03T00:23:35.006Z,73159.09
2023-08-03T00:26:02.049Z,73159.09
2023-08-03T00:28:31.963Z,73175.63
2023-08-03T00:30:59.098Z,73181.81
2023-08-03T00:33:35.557Z,73177.69
2023-08-03T00:36:02.613Z,73173.53
2023-08-03T00:38:29.660Z,73175.63
2023-08-03T00:40:56.764Z,73185.94
2023-08-03T00:43:23.850Z,73200.41
2023-08-03T00:45:50.971Z,73198.34
2023-08-03T00:48:20.592Z,73204.53
2023-08-03T00:50:47.792Z,73212.81
2023-08-03T00:53:14.905Z,73219.00
2023-08-03T00:55:41.920Z,73227.28
2023-08-03T00:58:09.016Z,73221.06
2023-08-03T01:00:36.520Z,73223.13
2023-08-03T01:03:03.723Z,73225.19
2023-08-03T01:05:50.207Z,73254.13
2023-08-03T01:08:37.843Z,73264.47
2023-08-03T01:11:17.836Z,73258.25
2023-08-03T01:14:04.502Z,73250.00
2023-08-03T01:16:59.077Z,73247.94
2023-08-03T01:19:39.926Z,73237.59
2023-08-03T01:22:09.658Z,73237.59
2023-08-03T01:24:36.897Z,73237.59
2023-08-03T01:27:05.841Z,73241.75
2023-08-03T01:29:33.133Z,73245.88
2023-08-03T01:32:01.861Z,73245.88
2023-08-03T01:34:29.540Z,73254.13
2023-08-03T01:36:57.411Z,73264.47
2023-08-03T01:39:28.338Z,73254.13
2023-08-03T01:41:55.373Z,73254.13
2023-08-03T01:44:37.527Z,73258.25
2023-08-03T01:47:04.647Z,73258.25
2023-08-03T01:49:34.400Z,73272.72
2023-08-03T01:52:08.602Z,73295.47
2023-08-03T01:54:35.655Z,73301.66
2023-08-03T01:57:02.720Z,73301.66
2023-08-03T01:59:29.798Z,73295.47
2023-08-03T02:01:57.017Z,73291.31
2023-08-03T02:04:24.294Z,73291.31
2023-08-03T02:06:53.155Z,73299.59
2023-08-03T02:09:32.381Z,73303.72
2023-08-03T02:11:59.392Z,73303.72
2023-08-03T02:14:26.528Z,73301.66
2023-08-03T02:16:53.676Z,73307.84
2023-08-03T02:19:20.872Z,73307.84
2023-08-03T02:21:47.957Z,73320.25
2023-08-03T02:24:14.997Z,73326.47
2023-08-03T02:26:42.022Z,73320.25
2023-08-03T02:29:09.921Z,73338.84
2023-08-03T02:31:37.024Z,73334.72
2023-08-03T02:34:04.074Z,73340.94
2023-08-03T02:36:31.206Z,73338.84
2023-08-03T02:38:58.340Z,73338.84
2023-08-03T02:41:49.298Z,73324.41
2023-08-03T02:44:48.381Z,73316.13
2023-08-03T02:47:15.635Z,73312.00
2023-08-03T02:49:42.735Z,73320.25
2023-08-03T02:52:12.974Z,73324.41
2023-08-03T02:54:46.946Z,73320.25
2023-08-03T02:57:13.987Z,73309.94
2023-08-03T02:59:41.053Z,73316.13
2023-08-03T03:02:27.690Z,73312.00
2023-08-03T03:04:55.009Z,73318.19
2023-08-03T03:07:22.209Z,73312.00
2023-08-03T03:10:10.363Z,73312.00
2023-08-03T03:12:37.681Z,73340.94
2023-08-03T03:15:05.044Z,73351.25
2023-08-03T03:17:32.116Z,73353.31
2023-08-03T03:19:59.289Z,73369.84
2023-08-03T03:22:26.372Z,73380.19
2023-08-03T03:24:53.372Z,73394.66
2023-08-03T03:27:20.386Z,73396.72
2023-08-03T03:29:47.448Z,73407.06
2023-08-03T03:32:14.472Z,73417.38
2023-08-03T03:34:41.592Z,73421.53
2023-08-03T03:37:08.650Z,73419.44
2023-08-03T03:39:35.674Z,73419.44
2023-08-03T03:42:02.736Z,73413.25
2023-08-03T03:44:29.788Z,73407.06
2023-08-03T03:46:56.835Z,73407.06
2023-08-03T03:49:23.961Z,73402.91
2023-08-03T03:51:51.005Z,73390.53
2023-08-03T03:54:18.126Z,73384.31
2023-08-03T03:56:45.174Z,73380.19
2023-08-03T03:59:12.208Z,73382.25
2023-08-03T04:01:39.197Z,73386.38
2023-08-03T04:04:06.314Z,73386.38
2023-08-03T04:06:33.429Z,73384.31
2023-08-03T04:09:00.549Z,73378.13
2023-08-03T04:11:27.640Z,73371.91
2023-08-03T04:13:56.626Z,73371.91
2023-08-03T04:16:23.974Z,73369.84
2023-08-03T04:18:50.961Z,73367.78
2023-08-03T04:21:18.003Z,73357.47
2023-08-03T04:23:45.101Z,73367.78
2023-08-03T04:26:12.192Z,73363.66
2023-08-03T04:28:39.346Z,73374.00
2023-08-03T04:31:06.657Z,73367.78
2023-08-03T04:33:33.894Z,73369.84
2023-08-03T04:36:01.625Z,73361.59
2023-08-03T04:38:28.781Z,73361.59
2023-08-03T04:40:55.901Z,73347.13
2023-08-03T04:43:23.097Z,73349.19
2023-08-03T04:45:50.284Z,73382.25
2023-08-03T04:48:17.420Z,73415.31
2023-08-03T04:50:44.693Z,73415.31
2023-08-03T04:53:12.068Z,73413.25
2023-08-03T04:55:39.333Z,73411.19
2023-08-03T04:58:06.670Z,73404.97
2023-08-03T05:00:33.978Z,73396.72
2023-08-03T05:03:01.189Z,73398.78
2023-08-03T05:05:28.469Z,73402.91
2023-08-03T05:07:55.581Z,73396.72
2023-08-03T05:10:22.732Z,73398.78
2023-08-03T05:12:49.904Z,73411.19
2023-08-03T05:15:17.152Z,73409.13
2023-08-03T05:17:44.283Z,73423.59
2023-08-03T05:20:11.668Z,73419.44
2023-08-03T05:22:38.751Z,73419.44
2023-08-03T05:25:06.421Z,73415.31
2023-08-03T05:27:33.623Z,73415.31
2023-08-03T05:30:01.289Z,73415.31
2023-08-03T05:32:28.465Z,73423.59
2023-08-03T05:34:56.040Z,73429.78
2023-08-03T05:37:23.112Z,73425.66
2023-08-03T05:39:50.262Z,73429.78
2023-08-03T05:42:19.027Z,73409.13
2023-08-03T05:44:46.199Z,73411.19
2023-08-03T05:47:16.674Z,73415.31
2023-08-03T05:49:43.785Z,73423.59
2023-08-03T05:52:12.101Z,73433.91
2023-08-03T05:54:40.006Z,73429.78
2023-08-03T05:57:09.926Z,73427.72
2023-08-03T05:59:37.601Z,73419.44
2023-08-03T06:02:17.026Z,73425.66
2023-08-03T06:04:45.219Z,73419.44
2023-08-03T06:07:13.387Z,73419.44
2023-08-03T06:09:40.513Z,73413.25
2023-08-03T06:12:16.065Z,73415.31
2023-08-03T06:14:43.295Z,73419.44
2023-08-03T06:17:11.616Z,73409.13
2023-08-03T06:19:38.847Z,73415.31
2023-08-03T06:22:17.575Z,73402.91
2023-08-03T06:24:44.612Z,73402.91
2023-08-03T06:27:13.406Z,73402.91
2023-08-03T06:29:40.579Z,73407.06
2023-08-03T06:32:18.903Z,73396.72
2023-08-03T06:34:46.187Z,73400.84
2023-08-03T06:37:13.422Z,73407.06
2023-08-03T06:39:40.519Z,73411.19
2023-08-03T06:42:08.008Z,73394.66
2023-08-03T06:44:37.462Z,73396.72
2023-08-03T06:47:05.163Z,73394.66
2023-08-03T06:49:32.382Z,73407.06
2023-08-03T06:51:59.756Z,73411.19
2023-08-03T06:54:27.080Z,73415.31
2023-08-03T06:56:54.142Z,73427.72
2023-08-03T06:59:22.547Z,73417.38
2023-08-03T07:01:51.610Z,73440.13
2023-08-03T07:04:18.792Z,73458.72
2023-08-03T07:06:49.174Z,73469.03
2023-08-03T07:09:16.267Z,73481.44
2023-08-03T07:11:43.672Z,73473.19
2023-08-03T07:14:11.107Z,73481.44
2023-08-03T07:16:39.802Z,73477.31
2023-08-03T07:19:11.524Z,73479.38
2023-08-03T07:21:38.639Z,73483.50
2023-08-03T07:24:06.439Z,73489.72
2023-08-03T07:26:33.515Z,73500.03
2023-08-03T07:29:00.562Z,73510.38
2023-08-03T07:31:29.396Z,73522.78
2023-08-03T07:33:56.527Z,73543.44
2023-08-03T07:36:23.696Z,73531.03
2023-08-03T07:38:50.944Z,73516.56
2023-08-03T07:41:17.982Z,73512.44
2023-08-03T07:43:45.249Z,73502.09
2023-08-03T07:46:12.477Z,73506.25
2023-08-03T07:48:39.641Z,73500.03
2023-08-03T07:51:20.329Z,73506.25
2023-08-03T07:53:48.820Z,73514.50
2023-08-03T07:56:20.913Z,73510.38
2023-08-03T07:58:49.624Z,73516.56
2023-08-03T08:01:16.937Z,73520.72
2023-08-03T08:03:44.628Z,73520.72
2023-08-03T08:06:17.916Z,73518.66
2023-08-03T08:08:46.104Z,73514.50
2023-08-03T08:11:15.861Z,73514.50
2023-08-03T08:13:44.228Z,73500.03
2023-08-03T08:16:13.973Z,73516.56
2023-08-03T08:18:41.537Z,73510.38
2023-08-03T08:21:13.231Z,73522.78
2023-08-03T08:23:41.469Z,73545.50
2023-08-03T08:26:13.995Z,73535.19
2023-08-03T08:29:00.127Z,73539.31
2023-08-03T08:31:41.128Z,73518.66
2023-08-03T08:34:16.315Z,73522.78
2023-08-03T08:36:43.430Z,73522.78
2023-08-03T08:39:12.243Z,73528.97
2023-08-03T08:41:42.969Z,73514.50
2023-08-03T08:44:15.448Z,73522.78
2023-08-03T08:46:45.755Z,73514.50
2023-08-03T08:54:18.157Z,73528.97
2023-08-03T09:02:04.354Z,73500.03
2023-08-03T09:04:35.132Z,73479.38
2023-08-03T09:07:04.060Z,73479.38
2023-08-03T09:09:36.736Z,73483.50
2023-08-03T09:12:04.975Z,73477.31
2023-08-03T09:14:33.316Z,73483.50
2023-08-03T09:17:22.193Z,73477.31
2023-08-03T09:25:06.401Z,73450.44
2023-08-03T09:30:15.191Z,73415.31
2023-08-03T09:35:25.164Z,73417.38
2023-08-03T09:37:54.790Z,73448.38
2023-08-03T09:40:22.251Z,73446.31
2023-08-03T09:42:50.090Z,73448.38
2023-08-03T09:47:51.208Z,73452.50
2023-08-03T09:50:18.425Z,73458.72
2023-08-03T09:52:50.953Z,73471.13
2023-08-03T09:55:30.724Z,73469.03
2023-08-03T09:58:07.390Z,73471.13
2023-08-03T10:00:35.073Z,73495.91
2023-08-03T10:03:08.788Z,73512.44
2023-08-03T10:05:41.209Z,73518.66
2023-08-03T10:08:47.998Z,73531.03
2023-08-03T10:11:15.515Z,73531.03
2023-08-03T10:13:47.750Z,73522.78
2023-08-03T10:16:17.465Z,73520.72
2023-08-03T10:18:58.371Z,73502.09
2023-08-03T10:21:27.870Z,73489.72
2023-08-03T10:24:16.991Z,73502.09
2023-08-03T10:26:44.779Z,73528.97
2023-08-03T10:29:12.276Z,73537.25
2023-08-03T10:31:56.562Z,73522.78
2023-08-03T10:34:28.592Z,73510.38
2023-08-03T10:36:58.648Z,73520.72
2023-08-03T10:40:01.611Z,73497.97
2023-08-03T10:42:36.588Z,73516.56
2023-08-03T10:45:22.559Z,73539.31
2023-08-03T10:47:50.885Z,73528.97
2023-08-03T10:50:18.148Z,73557.91
2023-08-03T10:52:45.416Z,73522.78
2023-08-03T10:55:28.216Z,73568.25
2023-08-03T10:57:58.554Z,73588.91
2023-08-03T11:00:25.689Z,73590.97
2023-08-03T11:02:52.912Z,73590.97
2023-08-03T11:05:20.081Z,73582.72
2023-08-03T11:07:48.310Z,73564.09
2023-08-03T11:10:17.139Z,73559.97
2023-08-03T11:12:46.525Z,73555.84
2023-08-03T11:15:18.049Z,73547.56
2023-08-03T11:17:50.504Z,73531.03
2023-08-03T11:20:17.700Z,73516.56
2023-08-03T11:22:45.290Z,73518.66
2023-08-03T11:25:12.461Z,73520.72
2023-08-03T11:27:43.399Z,73510.38
2023-08-03T11:30:10.854Z,73497.97
2023-08-03T11:32:40.335Z,73493.84
2023-08-03T11:35:09.532Z,73469.03
2023-08-03T11:37:38.710Z,73464.91
2023-08-03T11:40:07.711Z,73460.78
2023-08-03T11:42:37.512Z,73431.84
2023-08-03T11:45:05.018Z,73427.72
2023-08-03T11:47:46.645Z,73452.50
2023-08-03T11:50:21.095Z,73456.66
2023-08-03T11:52:48.335Z,73423.59
2023-08-03T11:55:34.884Z,73419.44
2023-08-03T11:58:14.435Z,73409.13
2023-08-03T12:00:44.038Z,73421.53
2023-08-03T12:03:11.833Z,73440.13
2023-08-03T12:06:07.409Z,73427.72
2023-08-03T12:08:44.047Z,73411.19
2023-08-03T12:11:15.623Z,73421.53
2023-08-03T12:16:11.636Z,73444.25
2023-08-03T12:18:38.963Z,73444.25
2023-08-03T12:21:06.031Z,73433.91
2023-08-03T12:23:33.185Z,73427.72
2023-08-03T12:26:00.195Z,73419.44
2023-08-03T12:28:27.783Z,73417.38
2023-08-03T12:30:55.541Z,73419.44
2023-08-03T12:33:22.888Z,73423.59
2023-08-03T12:35:50.100Z,73409.13
2023-08-03T12:38:17.233Z,73404.97
2023-08-03T12:40:44.336Z,73407.06
2023-08-03T12:43:11.541Z,73380.19
2023-08-03T12:45:38.870Z,73365.72
2023-08-03T12:48:16.599Z,73357.47
2023-08-03T12:50:46.582Z,73361.59
2023-08-03T12:53:14.592Z,73353.31
2023-08-03T12:55:42.455Z,73316.13
2023-08-03T12:58:09.857Z,73340.94
2023-08-03T13:00:36.896Z,73340.94
2023-08-03T13:03:04.807Z,73390.53
2023-08-03T13:05:34.171Z,73407.06
2023-08-03T13:08:01.262Z,73407.06
2023-08-03T13:10:28.479Z,73407.06
2023-08-03T13:15:25.592Z,73411.19
2023-08-03T13:17:55.897Z,73394.66
2023-08-03T13:20:26.125Z,73390.53
2023-08-03T13:22:53.535Z,73411.19
2023-08-03T13:25:20.717Z,73409.13
2023-08-03T13:27:49.816Z,73419.44
2023-08-03T13:30:20.145Z,73407.06
2023-08-03T13:32:47.968Z,73411.19
2023-08-03T13:35:15.355Z,73407.06
2023-08-03T13:38:00.742Z,73415.31
2023-08-03T13:41:04.419Z,73382.25
2023-08-03T13:43:39.329Z,73407.06
2023-08-03T13:46:06.370Z,73394.66
2023-08-03T13:48:33.493Z,73390.53
2023-08-03T13:51:00.735Z,73390.53
2023-08-03T13:53:28.071Z,73382.25
2023-08-03T13:55:55.215Z,73396.72
2023-08-03T14:00:52.686Z,73394.66
2023-08-03T14:03:34.312Z,73382.25
2023-08-03T14:09:12.110Z,73384.31
2023-08-03T14:11:20.294Z,73371.91
2023-08-03T14:18:49.095Z,73382.25
2023-08-03T14:21:37.301Z,73396.72
2023-08-03T14:24:03.502Z,73378.13
2023-08-03T14:26:30.989Z,73394.66
2023-08-03T14:31:28.173Z,73409.13
2023-08-03T14:33:55.198Z,73398.78
2023-08-03T14:36:22.381Z,73404.97
2023-08-03T14:38:49.425Z,73415.31
2023-08-03T14:41:19.092Z,73419.44
2023-08-03T14:43:46.595Z,73423.59
2023-08-03T14:46:13.770Z,73425.66
2023-08-03T14:48:41.053Z,73429.78
2023-08-03T14:53:38.145Z,73431.84
2023-08-03T15:01:11.203Z,73440.13
2023-08-03T15:03:39.168Z,73440.13
2023-08-03T15:06:16.934Z,73448.38
2023-08-03T15:08:45.067Z,73450.44
2023-08-03T15:11:12.501Z,73440.13
2023-08-03T15:13:40.473Z,73448.38
2023-08-03T15:16:28.850Z,73435.97
2023-08-03T15:18:57.492Z,73435.97
2023-08-03T15:21:27.609Z,73442.19
2023-08-03T15:23:59.881Z,73442.19
2023-08-03T15:26:32.415Z,73442.19
2023-08-03T15:29:06.493Z,73444.25
2023-08-03T15:31:34.441Z,73448.38
2023-08-03T15:34:02.801Z,73452.50
2023-08-03T15:36:40.746Z,73456.66
2023-08-03T15:39:11.497Z,73448.38
2023-08-03T15:41:41.173Z,73452.50
2023-08-03T15:44:10.150Z,73456.66
2023-08-03T15:46:53.153Z,73469.03
2023-08-03T15:49:31.888Z,73477.31
2023-08-03T15:52:04.110Z,73481.44
2023-08-03T15:54:36.741Z,73475.25
2023-08-03T15:57:11.331Z,73475.25
2023-08-03T15:59:40.053Z,73477.31
2023-08-03T16:02:08.069Z,73471.13
2023-08-03T16:04:35.302Z,73462.84
2023-08-03T16:07:02.516Z,73473.19
2023-08-03T16:09:29.542Z,73469.03
2023-08-03T16:11:56.575Z,73481.44
2023-08-03T16:14:23.555Z,73477.31
2023-08-03T16:16:50.990Z,73475.25
2023-08-03T16:19:18.460Z,73475.25
2023-08-03T16:21:45.566Z,73479.38
2023-08-03T16:24:12.692Z,73483.50
2023-08-03T16:26:39.789Z,73475.25
2023-08-03T16:29:06.826Z,73464.91
2023-08-03T16:31:39.186Z,73442.19
2023-08-03T16:36:38.785Z,73402.91
2023-08-03T16:39:05.857Z,73388.44
2023-08-03T16:41:32.854Z,73365.72
2023-08-03T16:44:00.018Z,73357.47
2023-08-03T16:46:27.174Z,73349.19
2023-08-03T16:48:55.207Z,73334.72
2023-08-03T16:51:22.579Z,73332.66
2023-08-03T16:53:49.743Z,73334.72
2023-08-03T16:56:16.810Z,73338.84
2023-08-03T16:58:43.875Z,73351.25
2023-08-03T17:01:13.301Z,73361.59
2023-08-03T17:03:40.583Z,73365.72
2023-08-03T17:06:09.241Z,73363.66
2023-08-03T17:08:36.480Z,73374.00
2023-08-03T17:11:03.969Z,73384.31
2023-08-03T17:13:31.064Z,73382.25
2023-08-03T17:16:04.386Z,73386.38
2023-08-03T17:18:35.248Z,73394.66
2023-08-03T17:21:04.106Z,73394.66
2023-08-03T17:23:46.818Z,73390.53
2023-08-03T17:26:21.266Z,73394.66
2023-08-03T17:28:48.493Z,73388.44
2023-08-03T17:31:15.881Z,73402.91
2023-08-03T17:33:52.490Z,73413.25
2023-08-03T17:36:19.726Z,73419.44
2023-08-03T17:38:47.130Z,73444.25
2023-08-03T17:41:14.363Z,73448.38
2023-08-03T17:43:43.486Z,73452.50
2023-08-03T17:46:15.412Z,73450.44
2023-08-03T17:48:43.520Z,73473.19
2023-08-03T17:51:12.534Z,73485.56
2023-08-03T17:53:46.254Z,73481.44
2023-08-03T17:56:18.662Z,73479.38
2023-08-03T17:58:49.791Z,73491.78
2023-08-03T18:01:23.215Z,73510.38
2023-08-03T18:03:51.661Z,73518.66
2023-08-03T18:06:25.792Z,73531.03
2023-08-03T18:08:54.710Z,73539.31
2023-08-03T18:11:21.910Z,73549.63
2023-08-03T18:13:54.992Z,73564.09
2023-08-03T18:16:44.498Z,73570.31
2023-08-03T18:19:18.219Z,73593.03
2023-08-03T18:21:46.272Z,73595.09
2023-08-03T18:24:29.738Z,73611.63
2023-08-03T18:26:58.907Z,73613.72
2023-08-03T18:29:34.391Z,73638.50
2023-08-03T18:32:01.777Z,73648.84
2023-08-03T18:34:31.268Z,73661.25
2023-08-03T18:36:58.450Z,73679.84
2023-08-03T18:39:28.468Z,73690.16
2023-08-03T18:41:55.819Z,73702.56
2023-08-03T18:44:24.141Z,73721.16
2023-08-03T18:47:04.115Z,73729.44
2023-08-03T18:49:31.272Z,73743.91
2023-08-03T18:52:00.668Z,73754.25
2023-08-03T18:54:30.048Z,73762.50
2023-08-03T18:57:01.293Z,73768.69
2023-08-03T18:59:30.496Z,73772.84
2023-08-03T19:02:00.554Z,73787.31
2023-08-03T19:04:30.473Z,73810.03
2023-08-03T19:07:00.370Z,73805.91
2023-08-03T19:09:31.375Z,73807.97
2023-08-03T19:12:02.476Z,73820.38
2023-08-03T19:14:29.946Z,73830.69
2023-08-03T19:17:08.082Z,73845.16
2023-08-03T19:19:38.591Z,73843.09
2023-08-03T19:22:05.872Z,73857.56
2023-08-03T19:24:36.259Z,73859.63
2023-08-03T19:27:08.564Z,73878.25
2023-08-03T19:29:36.028Z,73890.63
2023-08-03T19:32:06.235Z,73903.03
2023-08-03T19:34:33.717Z,73915.44
2023-08-03T19:37:04.013Z,73923.72
2023-08-03T19:39:31.308Z,73936.09
2023-08-03T19:42:07.517Z,73956.78
2023-08-03T19:44:34.707Z,73948.50
2023-08-03T19:47:01.952Z,73956.78
2023-08-03T19:52:25.665Z,73979.50
2023-08-03T19:58:14.824Z,73989.84
2023-08-03T20:07:38.268Z,74089.06
2023-08-03T20:11:01.871Z,74109.72
2023-08-03T20:17:26.259Z,74171.72
2023-08-03T20:19:51.350Z,74165.53
2023-08-03T20:22:21.845Z,74175.84
2023-08-03T20:24:51.935Z,74180.00
2023-08-03T20:27:19.967Z,74171.72
2023-08-03T20:32:29.005Z,74149.00
2023-08-03T20:34:56.829Z,74155.19
2023-08-03T20:37:24.088Z,74146.91
2023-08-03T20:45:50.015Z,74142.78
2023-08-03T20:48:37.403Z,74140.72
2023-08-03T20:51:19.383Z,74130.38
2023-08-03T20:53:46.541Z,74120.06
2023-08-03T20:56:37.832Z,74118.00
2023-08-03T21:00:02.298Z,74103.53
2023-08-03T21:02:33.151Z,74101.44
2023-08-03T21:05:23.479Z,74107.66
2023-08-03T21:08:18.615Z,74113.84
2023-08-03T21:10:51.007Z,74124.19
2023-08-03T21:13:55.310Z,74120.06
2023-08-03T21:17:08.689Z,74122.13
2023-08-03T21:20:09.453Z,74136.59
2023-08-03T21:23:06.308Z,74130.38
